Time;durP1;ratioP1;P1;durP2;ratioP2;P2;SDS_P1;SDS_P2;PMS_P1;PMS_P2;Temp;Humidity;BMP_temperature;BMP_pressure;BME280_temperature;BME280_humidity;BME280_pressure;Samples;Min_cycle;Max_cycle;Signal;HPM_P1;HPM_P2
2022/03/31 00:01:19;;;;;;;;;;;;;;;-143.90;100.00;55266.09;2084138;28;19928;-63
2022/03/31 00:02:40;;;;;;;;;;;;;;;-143.90;100.00;55325.66;2085398;28;20386;-62
2022/03/31 00:04:01;;;;;;;;;;;;;;;-143.90;100.00;55264.13;2084812;28;19981;-63
2022/03/31 00:05:21;;;;;;;;;;;;;;;-143.90;100.00;55309.78;2086191;28;20020;-64
2022/03/31 00:06:42;;;;;;;;;;;;;;;-143.90;100.00;55287.94;2083798;28;19985;-62
2022/03/31 00:08:05;;;;;;;;;;;;;;;-143.90;100.00;55266.09;2084418;28;19932;-64
2022/03/31 00:09:26;;;;;;;;;;;;;;;-143.90;100.00;55293.91;2084040;28;19921;-62
2022/03/31 00:10:52;;;;;;;;;;;;;;;-143.90;100.00;55270.06;2084038;28;19975;-64
2022/03/31 00:12:12;;;;;;;;;;;;;;;-143.90;100.00;55266.09;2077031;28;19932;-64
2022/03/31 00:13:34;;;;;;;;;;;;;;;-143.90;100.00;55305.81;2082545;28;19921;-63
2022/03/31 00:14:54;;;;;;;;;;;;;;;-143.90;100.00;55260.16;2084954;28;20095;-63
2022/03/31 00:16:15;;;;;;;;;;;;;;;-143.90;100.00;55250.22;2085389;28;19924;-64
2022/03/31 00:17:36;;;;;;;;;;;;;;;-143.90;100.00;55283.97;2084822;28;19998;-62
2022/03/31 00:18:57;;;;;;;;;;;;;;;-143.90;100.00;55274.03;2083685;28;20019;-63
2022/03/31 00:33:52;;;;;;;;;;;;;;;-143.90;100.00;55287.94;2077536;28;19921;-62
2022/03/31 00:35:13;;;;;;;;;;;;;;;-143.90;100.00;55289.94;2076672;28;19971;-62
2022/03/31 00:36:33;;;;;;;;;;;;;;;-143.90;100.00;55262.13;2075161;28;19921;-63
2022/03/31 00:37:55;;;;;;;;;;;;;;;-143.90;100.00;55262.13;2076765;28;19921;-64
2022/03/31 00:39:34;;;;;;;;;;;;;;;-143.90;100.00;55278.00;2076384;28;19920;-63
2022/03/31 00:40:54;;;;;;;;;;;;;;;-143.90;100.00;55297.88;2076793;28;19931;-63
2022/03/31 00:42:16;;;;;;;;;;;;;;;-143.90;100.00;55283.97;2076282;28;19921;-62
2022/03/31 00:43:37;;;;;;;;;;;;;;;-143.90;100.00;55276.03;2077024;28;19928;-59
2022/03/31 00:44:57;;;;;;;;;;;;;;;-143.90;100.00;55260.16;2076687;28;19921;-62
2022/03/31 00:46:22;;;;;;;;;;;;;;;-143.90;100.00;55266.09;2076937;28;19924;-64
2022/03/31 00:47:43;;;;;;;;;;;;;;;-143.90;100.00;55289.94;2067380;28;19926;-63
2022/03/31 00:49:04;;;;;;;;;;;;;;;-143.90;100.00;55303.81;2072359;28;20107;-65
2022/03/31 00:50:26;;;;;;;;;;;;;;;-143.90;100.00;55317.72;2076729;28;19945;-61
2022/03/31 00:51:47;;;;;;;;;;;;;;;-143.90;100.00;55274.03;2076426;28;19960;-63
2022/03/31 00:53:08;;;;;;;;;;;;;;;-143.90;100.00;55272.06;2076867;28;20305;-62
2022/03/31 00:54:29;;;;;;;;;;;;;;;-143.90;100.00;55281.97;2077204;28;20829;-64
2022/03/31 00:55:50;;;;;;;;;;;;;;;-143.90;100.00;55270.06;2066884;28;20286;-63
2022/03/31 00:57:10;;;;;;;;;;;;;;;-143.90;100.00;55289.94;2074119;28;19960;-63
2022/03/31 00:58:31;;;;;;;;;;;;;;;-143.90;100.00;55276.03;2067792;28;19921;-62
2022/03/31 00:59:52;;;;;;;;;;;;;;;-143.90;100.00;55278.00;2074410;28;19921;-63
2022/03/31 01:01:13;;;;;;;;;;;;;;;-143.90;100.00;55281.97;2078188;28;20040;-61
2022/03/31 01:02:35;;;;;;;;;;;;;;;-143.90;100.00;55289.94;2068111;28;20079;-62
2022/03/31 01:03:56;;;;;;;;;;;;;;;-143.90;100.00;55242.28;2074226;28;19921;-63
2022/03/31 01:05:18;;;;;;;;;;;;;;;-143.90;100.00;55258.16;2076652;28;19982;-64
2022/03/31 01:06:39;;;;;;;;;;;;;;;-143.90;100.00;55329.63;2076046;28;19921;-62
2022/03/31 01:08:00;;;;;;;;;;;;;;;-143.90;100.00;55293.91;2078989;28;19988;-64
2022/03/31 01:09:21;;;;;;;;;;;;;;;-143.90;100.00;55289.94;2076977;28;20712;-64
2022/03/31 01:10:42;;;;;;;;;;;;;;;-143.90;100.00;55289.94;2066847;28;19921;-63
2022/03/31 01:12:04;;;;;;;;;;;;;;;-143.90;100.00;55289.94;2065984;28;20008;-63
2022/03/31 01:13:25;;;;;;;;;;;;;;;-143.90;100.00;55313.75;2072867;28;20712;-64
2022/03/31 01:14:45;;;;;;;;;;;;;;;-143.90;100.00;55307.78;2076512;28;19925;-64
2022/03/31 01:16:06;;;;;;;;;;;;;;;-143.90;100.00;55258.16;2077407;28;19928;-65
2022/03/31 01:17:27;;;;;;;;;;;;;;;-143.90;100.00;55337.59;2076627;28;19975;-64
2022/03/31 01:18:50;;;;;;;;;;;;;;;-143.90;100.00;55258.16;2074484;28;20263;-64
2022/03/31 01:20:14;;;;;;;;;;;;;;;-143.90;100.00;55270.06;2076207;28;19925;-61
2022/03/31 01:21:39;;;;;;;;;;;;;;;-143.90;100.00;55262.13;2076330;28;20798;-63
2022/03/31 01:23:00;;;;;;;;;;;;;;;-143.90;100.00;55293.91;2077152;28;19927;-63
2022/03/31 01:24:22;;;;;;;;;;;;;;;-143.90;100.00;55272.06;2075785;28;20464;-63
2022/03/31 01:25:43;;;;;;;;;;;;;;;-143.90;100.00;55315.75;2077853;28;20399;-64
2022/03/31 01:27:07;;;;;;;;;;;;;;;-143.90;100.00;55246.25;2083668;28;19921;-62
2022/03/31 01:28:27;;;;;;;;;;;;;;;-143.90;100.00;55268.09;2084670;28;20085;-63
2022/03/31 01:29:48;;;;;;;;;;;;;;;-143.90;100.00;55281.97;2085524;28;19948;-63
2022/03/31 01:31:10;;;;;;;;;;;;;;;-143.90;100.00;55244.25;2083576;28;19920;-63
2022/03/31 01:32:31;;;;;;;;;;;;;;;-143.90;100.00;55278.00;2085063;28;19979;-63
2022/03/31 01:33:51;;;;;;;;;;;;;;;-143.90;100.00;55299.84;2074683;28;19971;-62
2022/03/31 01:35:13;;;;;;;;;;;;;;;-143.90;100.00;55260.16;2081588;28;20412;-61
2022/03/31 01:36:36;;;;;;;;;;;;;;;-143.90;100.00;55285.97;2084342;28;20379;-64
2022/03/31 01:37:57;;;;;;;;;;;;;;;-143.90;100.00;55303.81;2083590;28;20086;-62
2022/03/31 01:39:18;;;;;;;;;;;;;;;-143.90;100.00;55297.88;2082746;28;19999;-62
2022/03/31 01:40:38;;;;;;;;;;;;;;;-143.90;100.00;55285.97;2082596;28;19921;-61
2022/03/31 01:41:59;;;;;;;;;;;;;;;-143.90;100.00;55278.00;2082977;28;19920;-62
2022/03/31 01:43:21;;;;;;;;;;;;;;;-143.90;100.00;55266.09;2082937;28;20039;-62
2022/03/31 01:44:42;;;;;;;;;;;;;;;-143.90;100.00;55270.06;2085289;28;20739;-62
2022/03/31 01:46:02;;;;;;;;;;;;;;;-143.90;100.00;55281.97;2085101;28;19925;-62
2022/03/31 01:47:24;;;;;;;;;;;;;;;-143.90;100.00;55297.88;2083016;28;19921;-63
2022/03/31 01:48:45;;;;;;;;;;;;;;;-143.90;100.00;55319.72;2083174;28;19921;-63
2022/03/31 01:50:09;;;;;;;;;;;;;;;-143.90;100.00;55293.91;2084251;28;19920;-63
2022/03/31 01:51:30;;;;;;;;;;;;;;;-143.90;100.00;55266.09;2082572;28;19921;-62
2022/03/31 01:52:50;;;;;;;;;;;;;;;-143.90;100.00;55285.97;2082563;28;19932;-63
2022/03/31 01:54:11;;;;;;;;;;;;;;;-143.90;100.00;55276.03;2084117;28;20003;-63
2022/03/31 01:55:32;;;;;;;;;;;;;;;-143.90;100.00;55309.78;2085311;28;19920;-62
2022/03/31 01:56:54;;;;;;;;;;;;;;;-143.90;100.00;55270.06;2082875;28;20321;-63
2022/03/31 01:58:15;;;;;;;;;;;;;;;-143.90;100.00;55258.16;2084014;28;19952;-63
2022/03/31 01:59:36;;;;;;;;;;;;;;;-143.90;100.00;55266.09;2083621;28;19920;-63
2022/03/31 02:00:57;;;;;;;;;;;;;;;-143.90;100.00;55289.94;2084259;28;19993;-63
2022/03/31 02:02:18;;;;;;;;;;;;;;;-143.90;100.00;55278.00;2085161;28;19920;-63
2022/03/31 02:03:40;;;;;;;;;;;;;;;-143.90;100.00;55268.09;2083857;28;19920;-63
2022/03/31 02:05:01;;;;;;;;;;;;;;;-143.90;100.00;55285.97;2083408;28;19920;-63
2022/03/31 02:06:21;;;;;;;;;;;;;;;-143.90;100.00;55317.72;2083436;28;20029;-61
2022/03/31 02:07:42;;;;;;;;;;;;;;;-143.90;100.00;55272.06;2083535;28;20074;-60
2022/03/31 02:09:03;;;;;;;;;;;;;;;-143.90;100.00;55278.00;2085127;28;19920;-63
2022/03/31 02:10:27;;;;;;;;;;;;;;;-143.90;100.00;55293.91;2083964;28;20011;-63
2022/03/31 02:11:48;;;;;;;;;;;;;;;-143.90;100.00;55278.00;2084622;28;20456;-64
2022/03/31 02:13:08;;;;;;;;;;;;;;;-143.90;100.00;55307.78;2083168;28;19932;-63
2022/03/31 02:14:30;;;;;;;;;;;;;;;-143.90;100.00;55262.13;2082550;28;20019;-63
2022/03/31 02:15:51;;;;;;;;;;;;;;;-143.90;100.00;55274.03;2083871;28;19928;-63
2022/03/31 02:17:13;;;;;;;;;;;;;;;-143.90;100.00;55262.13;2084209;28;19931;-61
2022/03/31 02:18:37;;;;;;;;;;;;;;;-143.90;100.00;55289.94;2086077;28;19920;-63
2022/03/31 02:19:58;;;;;;;;;;;;;;;-143.90;100.00;55293.91;2084740;28;20308;-62
2022/03/31 02:21:19;;;;;;;;;;;;;;;-143.90;100.00;55278.00;2084471;28;19925;-63
2022/03/31 02:22:40;;;;;;;;;;;;;;;-143.90;100.00;55281.97;2083528;28;20014;-63
2022/03/31 02:24:01;;;;;;;;;;;;;;;-143.90;100.00;55260.16;2077431;28;19935;-61
2022/03/31 02:25:22;;;;;;;;;;;;;;;-143.90;100.00;55283.97;2082425;28;19913;-63
2022/03/31 02:26:43;;;;;;;;;;;;;;;-143.90;100.00;55303.81;2083377;28;19929;-63
2022/03/31 02:28:04;;;;;;;;;;;;;;;-143.90;100.00;55250.22;2084899;28;19936;-63
2022/03/31 02:29:25;;;;;;;;;;;;;;;-143.90;100.00;55297.88;2075238;28;19921;-63
2022/03/31 02:30:46;;;;;;;;;;;;;;;-143.90;100.00;55293.91;2079996;28;20474;-61
2022/03/31 02:32:07;;;;;;;;;;;;;;;-143.90;100.00;55301.84;2081400;28;19928;-63
2022/03/31 02:33:28;;;;;;;;;;;;;;;-143.90;100.00;55305.81;2082625;28;19927;-63
2022/03/31 02:34:49;;;;;;;;;;;;;;;-143.90;100.00;55291.91;2082665;28;19947;-62
2022/03/31 02:36:09;;;;;;;;;;;;;;;-143.90;100.00;55262.13;2082645;28;19936;-61
2022/03/31 02:37:30;;;;;;;;;;;;;;;-143.90;100.00;55305.81;2084822;28;19924;-62
2022/03/31 02:38:51;;;;;;;;;;;;;;;-143.90;100.00;55309.78;2083089;28;19956;-62
2022/03/31 02:40:11;;;;;;;;;;;;;;;-143.90;100.00;55266.09;2083110;28;19921;-61
2022/03/31 02:41:32;;;;;;;;;;;;;;;-143.90;100.00;55250.22;2084304;28;19951;-62
2022/03/31 02:42:53;;;;;;;;;;;;;;;-143.90;100.00;55278.00;2082672;28;19924;-62
2022/03/31 02:44:15;;;;;;;;;;;;;;;-143.90;100.00;55264.13;2082547;28;19970;-64
2022/03/31 02:45:36;;;;;;;;;;;;;;;-143.90;100.00;55289.94;2079016;28;19925;-62
2022/03/31 02:46:57;;;;;;;;;;;;;;;-143.90;100.00;55281.97;2084813;28;19924;-63
2022/03/31 02:48:17;;;;;;;;;;;;;;;-143.90;100.00;55254.19;2083466;28;19921;-62
2022/03/31 02:49:39;;;;;;;;;;;;;;;-143.90;100.00;55293.91;2084937;28;19927;-63
2022/03/31 02:50:59;;;;;;;;;;;;;;;-143.90;100.00;55276.03;2081519;28;20747;-62
2022/03/31 02:52:20;;;;;;;;;;;;;;;-143.90;100.00;55274.03;2082270;28;20031;-61
2022/03/31 02:55:28;;;;;;;;;;;;;;;-143.90;100.00;55278.00;2083876;28;20334;-61
2022/03/31 02:56:51;;;;;;;;;;;;;;;-143.90;100.00;55252.19;2085068;28;19917;-63
2022/03/31 02:58:12;;;;;;;;;;;;;;;-143.90;100.00;55244.25;2084489;28;19990;-61
2022/03/31 02:59:33;;;;;;;;;;;;;;;-143.90;100.00;55262.13;2083989;28;19924;-63
2022/03/31 03:00:54;;;;;;;;;;;;;;;-143.90;100.00;55301.84;2083389;28;19931;-62
2022/03/31 03:02:15;;;;;;;;;;;;;;;-143.90;100.00;55285.97;2083767;28;20412;-63
2022/03/31 03:03:36;;;;;;;;;;;;;;;-143.90;100.00;55278.00;2081888;28;19920;-61
2022/03/31 03:04:57;;;;;;;;;;;;;;;-143.90;100.00;55289.94;2083075;28;19932;-61
2022/03/31 03:06:17;;;;;;;;;;;;;;;-143.90;100.00;55234.31;2084342;28;19920;-63
2022/03/31 03:07:38;;;;;;;;;;;;;;;-143.90;100.00;55278.00;2084256;28;19924;-60
2022/03/31 03:08:59;;;;;;;;;;;;;;;-143.90;100.00;55270.06;2083694;28;19920;-63
2022/03/31 03:10:20;;;;;;;;;;;;;;;-143.90;100.00;55309.78;2084337;28;19920;-64
2022/03/31 03:11:40;;;;;;;;;;;;;;;-143.90;100.00;55297.88;2082936;28;19924;-62
2022/03/31 03:13:01;;;;;;;;;;;;;;;-143.90;100.00;55246.25;2082600;28;20017;-63
2022/03/31 03:14:22;;;;;;;;;;;;;;;-143.90;100.00;55299.84;2079892;28;19925;-63
2022/03/31 03:15:43;;;;;;;;;;;;;;;-143.90;100.00;55289.94;2081639;28;20032;-62
2022/03/31 03:17:04;;;;;;;;;;;;;;;-143.90;100.00;55270.06;2081031;28;20031;-61
2022/03/31 03:18:25;;;;;;;;;;;;;;;-143.90;100.00;55266.09;2083711;28;20016;-63
2022/03/31 03:19:46;;;;;;;;;;;;;;;-143.90;100.00;55242.28;2075653;28;19928;-63
2022/03/31 03:21:07;;;;;;;;;;;;;;;-143.90;100.00;55278.00;2077026;28;19921;-62
2022/03/31 03:22:28;;;;;;;;;;;;;;;-143.90;100.00;55246.25;2080491;28;19920;-60
2022/03/31 03:23:49;;;;;;;;;;;;;;;-143.90;100.00;55309.78;2079587;28;20356;-62
2022/03/31 03:25:10;;;;;;;;;;;;;;;-143.90;100.00;55262.13;2080639;28;20434;-62
2022/03/31 03:26:31;;;;;;;;;;;;;;;-143.90;100.00;55250.22;2082412;28;20631;-61
2022/03/31 03:27:52;;;;;;;;;;;;;;;-143.90;100.00;55293.91;2082617;28;20576;-63
2022/03/31 03:29:12;;;;;;;;;;;;;;;-143.90;100.00;55303.81;2068019;28;19926;-61
2022/03/31 03:30:33;;;;;;;;;;;;;;;-143.90;100.00;55258.16;2078102;28;20028;-63
2022/03/31 03:31:54;;;;;;;;;;;;;;;-143.90;100.00;55254.19;2084250;28;20002;-62
2022/03/31 03:33:15;;;;;;;;;;;;;;;-143.90;100.00;55337.59;2084213;28;19927;-62
2022/03/31 03:34:35;;;;;;;;;;;;;;;-143.90;100.00;55293.91;2084267;28;19925;-63
2022/03/31 03:35:56;;;;;;;;;;;;;;;-143.90;100.00;55283.97;2084924;28;19927;-61
2022/03/31 03:37:17;;;;;;;;;;;;;;;-143.90;100.00;55307.78;2085853;28;19924;-63
2022/03/31 03:38:38;;;;;;;;;;;;;;;-143.90;100.00;55250.22;2086077;28;19986;-63
2022/03/31 03:40:02;;;;;;;;;;;;;;;-143.90;100.00;55305.81;2086211;28;19932;-63
2022/03/31 03:41:22;;;;;;;;;;;;;;;-143.90;100.00;55289.94;2085678;28;20429;-62
2022/03/31 03:42:43;;;;;;;;;;;;;;;-143.90;100.00;55309.78;2084959;28;19975;-64
2022/03/31 03:44:04;;;;;;;;;;;;;;;-143.90;100.00;55278.00;2085441;28;19916;-63
2022/03/31 03:45:25;;;;;;;;;;;;;;;-143.90;100.00;55248.22;2084256;28;19931;-62
2022/03/31 03:46:45;;;;;;;;;;;;;;;-143.90;100.00;55295.88;2085541;28;20390;-64
2022/03/31 03:48:07;;;;;;;;;;;;;;;-143.90;100.00;55258.16;2085771;28;19931;-63
2022/03/31 03:49:28;;;;;;;;;;;;;;;-143.90;100.00;55281.97;2085278;28;20386;-64
2022/03/31 03:50:48;;;;;;;;;;;;;;;-143.90;100.00;55278.00;2083876;28;19967;-63
2022/03/31 03:52:09;;;;;;;;;;;;;;;-143.90;100.00;55285.97;2083686;28;19921;-64
2022/03/31 03:53:30;;;;;;;;;;;;;;;-143.90;100.00;55301.84;2085118;28;19931;-63
2022/03/31 03:54:51;;;;;;;;;;;;;;;-143.90;100.00;55281.97;2084912;28;19925;-63
2022/03/31 03:56:11;;;;;;;;;;;;;;;-143.90;100.00;55281.97;2083169;28;19960;-63
2022/03/31 03:57:32;;;;;;;;;;;;;;;-143.90;100.00;55274.03;2081416;28;20548;-60
2022/03/31 03:58:53;;;;;;;;;;;;;;;-143.90;100.00;55270.06;2084520;28;19982;-62
2022/03/31 04:00:14;;;;;;;;;;;;;;;-143.90;100.00;55274.03;2075449;28;19952;-61
2022/03/31 04:01:34;;;;;;;;;;;;;;;-143.90;100.00;55274.03;2078820;28;19925;-64
2022/03/31 04:02:55;;;;;;;;;;;;;;;-143.90;100.00;55285.97;2083827;28;19920;-61
2022/03/31 04:04:16;;;;;;;;;;;;;;;-143.90;100.00;55274.03;2085914;28;19928;-62
2022/03/31 04:05:37;;;;;;;;;;;;;;;-143.90;100.00;55262.13;2084715;28;19928;-61
2022/03/31 04:06:58;;;;;;;;;;;;;;;-143.90;100.00;55278.00;2075980;28;19921;-61
2022/03/31 04:08:19;;;;;;;;;;;;;;;-143.90;100.00;55274.03;2081946;28;19927;-63
2022/03/31 04:09:39;;;;;;;;;;;;;;;-143.90;100.00;55276.03;2084083;28;19920;-62
2022/03/31 04:11:00;;;;;;;;;;;;;;;-143.90;100.00;55313.75;2084462;28;19921;-63
2022/03/31 04:12:22;;;;;;;;;;;;;;;-143.90;100.00;55270.06;2084449;28;19940;-61
2022/03/31 04:13:43;;;;;;;;;;;;;;;-143.90;100.00;55266.09;2085065;28;19974;-63
2022/03/31 04:15:04;;;;;;;;;;;;;;;-143.90;100.00;55258.16;2084132;28;19928;-64
2022/03/31 04:16:25;;;;;;;;;;;;;;;-143.90;100.00;55313.75;2083984;28;20391;-63
2022/03/31 04:17:46;;;;;;;;;;;;;;;-143.90;100.00;55252.19;2084370;28;19928;-62
2022/03/31 04:19:09;;;;;;;;;;;;;;;-143.90;100.00;55254.19;2084126;28;19928;-61
2022/03/31 04:20:30;;;;;;;;;;;;;;;-143.90;100.00;55281.97;2084159;28;19917;-63
2022/03/31 04:21:51;;;;;;;;;;;;;;;-143.90;100.00;55250.22;2083918;28;20394;-64
2022/03/31 04:23:11;;;;;;;;;;;;;;;-143.90;100.00;55266.09;2084793;28;20000;-63
2022/03/31 04:24:32;;;;;;;;;;;;;;;-143.90;100.00;55278.00;2083153;28;19931;-63
2022/03/31 04:25:52;;;;;;;;;;;;;;;-143.90;100.00;55266.09;2083978;28;19931;-63
2022/03/31 04:27:13;;;;;;;;;;;;;;;-143.90;100.00;55260.16;2083326;28;20438;-62
2022/03/31 04:28:34;;;;;;;;;;;;;;;-143.90;100.00;55278.00;2085069;28;19928;-62
2022/03/31 04:29:55;;;;;;;;;;;;;;;-143.90;100.00;55278.00;2085967;28;19921;-63
2022/03/31 04:31:16;;;;;;;;;;;;;;;-143.90;100.00;55297.88;2076352;28;19925;-63
2022/03/31 04:32:36;;;;;;;;;;;;;;;-143.90;100.00;55297.88;2084894;28;19920;-62
2022/03/31 04:33:57;;;;;;;;;;;;;;;-143.90;100.00;55270.06;2084127;28;19917;-62
2022/03/31 04:35:18;;;;;;;;;;;;;;;-143.90;100.00;55254.19;2083694;28;19920;-63
2022/03/31 04:36:39;;;;;;;;;;;;;;;-143.90;100.00;55289.94;2084808;28;19947;-63
2022/03/31 04:38:00;;;;;;;;;;;;;;;-143.90;100.00;55280.00;2085686;28;19921;-64
2022/03/31 04:39:21;;;;;;;;;;;;;;;-143.90;100.00;55274.03;2085667;28;19952;-63
2022/03/31 04:40:41;;;;;;;;;;;;;;;-143.90;100.00;55276.03;2083968;28;19963;-63
2022/03/31 04:42:02;;;;;;;;;;;;;;;-143.90;100.00;55238.31;2083283;28;19917;-64
2022/03/31 04:43:23;;;;;;;;;;;;;;;-143.90;100.00;55297.88;2084334;28;20701;-62
2022/03/31 04:44:44;;;;;;;;;;;;;;;-143.90;100.00;55246.25;2084317;28;20403;-62
2022/03/31 04:46:04;;;;;;;;;;;;;;;-143.90;100.00;55283.97;2085166;28;19920;-62
2022/03/31 04:47:25;;;;;;;;;;;;;;;-143.90;100.00;55268.09;2083607;28;20698;-62
2022/03/31 04:48:46;;;;;;;;;;;;;;;-143.90;100.00;55270.06;2082995;28;19960;-63
2022/03/31 04:50:07;;;;;;;;;;;;;;;-143.90;100.00;55274.03;2085475;28;19942;-63
2022/03/31 04:51:28;;;;;;;;;;;;;;;-143.90;100.00;55305.81;2084482;28;19923;-63
2022/03/31 04:52:49;;;;;;;;;;;;;;;-143.90;100.00;55266.09;2085278;28;20707;-64
2022/03/31 04:54:09;;;;;;;;;;;;;;;-143.90;100.00;55274.03;2076159;28;19917;-64
2022/03/31 04:55:30;;;;;;;;;;;;;;;-143.90;100.00;55317.72;2081861;28;20034;-64
2022/03/31 04:56:51;;;;;;;;;;;;;;;-143.90;100.00;55289.94;2083538;28;19920;-64
2022/03/31 04:58:12;;;;;;;;;;;;;;;-143.90;100.00;55258.16;2083719;28;19932;-58
2022/03/31 04:59:32;;;;;;;;;;;;;;;-143.90;100.00;55274.03;2084529;28;19923;-64
2022/03/31 05:00:53;;;;;;;;;;;;;;;-143.90;100.00;55285.97;2085575;28;19940;-64
2022/03/31 05:02:13;;;;;;;;;;;;;;;-143.90;100.00;55285.97;2084632;28;20006;-65
2022/03/31 05:03:34;;;;;;;;;;;;;;;-143.90;100.00;55270.06;2084623;28;19954;-63
2022/03/31 05:04:55;;;;;;;;;;;;;;;-143.90;100.00;55272.06;2084284;28;20013;-62
2022/03/31 05:06:15;;;;;;;;;;;;;;;-143.90;100.00;55270.06;2084234;28;19925;-62
2022/03/31 05:07:36;;;;;;;;;;;;;;;-143.90;100.00;55281.97;2084430;28;20510;-63
2022/03/31 05:08:57;;;;;;;;;;;;;;;-143.90;100.00;55293.91;2084607;28;19928;-62
2022/03/31 05:10:18;;;;;;;;;;;;;;;-143.90;100.00;55254.19;2076443;28;19991;-64
2022/03/31 05:11:39;;;;;;;;;;;;;;;-143.90;100.00;55270.06;2081202;28;19959;-64
2022/03/31 05:13:00;;;;;;;;;;;;;;;-143.90;100.00;55266.09;2084409;28;19916;-62
2022/03/31 05:14:21;;;;;;;;;;;;;;;-143.90;100.00;55278.00;2083951;28;19928;-64
2022/03/31 05:15:41;;;;;;;;;;;;;;;-143.90;100.00;55325.66;2084300;28;19916;-62
2022/03/31 05:17:03;;;;;;;;;;;;;;;-143.90;100.00;55309.78;2085333;28;20015;-63
2022/03/31 05:18:24;;;;;;;;;;;;;;;-143.90;100.00;55278.00;2084347;28;19924;-62
2022/03/31 05:19:45;;;;;;;;;;;;;;;-143.90;100.00;55242.28;2083767;28;19923;-62
2022/03/31 05:21:05;;;;;;;;;;;;;;;-143.90;100.00;55276.03;2084050;28;19944;-62
2022/03/31 05:22:26;;;;;;;;;;;;;;;-143.90;100.00;55309.78;2083831;28;20054;-63
2022/03/31 05:23:48;;;;;;;;;;;;;;;-143.90;100.00;55270.06;2084633;28;19934;-58
2022/03/31 05:25:09;;;;;;;;;;;;;;;-143.90;100.00;55274.03;2083843;28;19921;-62
2022/03/31 05:26:30;;;;;;;;;;;;;;;-143.90;100.00;55283.97;2076808;28;19925;-64
2022/03/31 05:27:51;;;;;;;;;;;;;;;-143.90;100.00;55293.91;2081485;28;20368;-63
2022/03/31 05:29:13;;;;;;;;;;;;;;;-143.90;100.00;55274.03;2083166;28;19969;-62
2022/03/31 05:30:34;;;;;;;;;;;;;;;-143.90;100.00;55289.94;2083544;28;20460;-63
2022/03/31 05:31:57;;;;;;;;;;;;;;;-143.90;100.00;55311.78;2084380;28;19998;-63
2022/03/31 05:33:19;;;;;;;;;;;;;;;-143.90;100.00;55278.00;2084412;28;19921;-63
2022/03/31 05:34:40;;;;;;;;;;;;;;;-143.90;100.00;55289.94;2084199;28;20027;-61
2022/03/31 05:36:01;;;;;;;;;;;;;;;-143.90;100.00;55266.09;2083463;28;20046;-63
2022/03/31 05:37:23;;;;;;;;;;;;;;;-143.90;100.00;55238.31;2083082;28;19920;-62
2022/03/31 05:38:44;;;;;;;;;;;;;;;-143.90;100.00;55289.94;2085298;28;20360;-64
2022/03/31 05:40:11;;;;;;;;;;;;;;;-143.90;100.00;55278.00;2083270;28;19920;-64
2022/03/31 05:41:32;;;;;;;;;;;;;;;-143.90;100.00;55339.56;2084046;28;19966;-61
2022/03/31 05:42:55;;;;;;;;;;;;;;;-143.90;100.00;55268.09;2083772;28;20006;-62
2022/03/31 05:44:16;;;;;;;;;;;;;;;-143.90;100.00;55266.09;2084906;28;19920;-63
2022/03/31 05:45:36;;;;;;;;;;;;;;;-143.90;100.00;55311.78;2083793;28;19927;-62
2022/03/31 05:46:57;;;;;;;;;;;;;;;-143.90;100.00;55278.00;2083257;28;20426;-63
2022/03/31 05:48:18;;;;;;;;;;;;;;;-143.90;100.00;55276.03;2083745;28;19920;-61
2022/03/31 05:49:39;;;;;;;;;;;;;;;-143.90;100.00;55281.97;2084344;28;19916;-61
2022/03/31 05:51:00;;;;;;;;;;;;;;;-143.90;100.00;55270.06;2085476;28;19925;-63
2022/03/31 05:52:21;;;;;;;;;;;;;;;-143.90;100.00;55236.31;2084386;28;20006;-61
2022/03/31 05:53:41;;;;;;;;;;;;;;;-143.90;100.00;55258.16;2083813;28;20696;-64
2022/03/31 05:55:02;;;;;;;;;;;;;;;-143.90;100.00;55293.91;2082605;28;19967;-63
2022/03/31 05:56:23;;;;;;;;;;;;;;;-143.90;100.00;55270.06;2084389;28;19917;-63
2022/03/31 05:57:43;;;;;;;;;;;;;;;-143.90;100.00;55301.84;2084055;28;19924;-63
2022/03/31 05:59:04;;;;;;;;;;;;;;;-143.90;100.00;55244.25;2085328;28;19958;-63
2022/03/31 06:00:25;;;;;;;;;;;;;;;-143.90;100.00;55281.97;2083255;28;20153;-62
2022/03/31 06:01:46;;;;;;;;;;;;;;;-143.90;100.00;55262.13;2083373;28;19920;-63
2022/03/31 06:03:06;;;;;;;;;;;;;;;-143.90;100.00;55285.97;2082854;28;19927;-60
2022/03/31 06:04:28;;;;;;;;;;;;;;;-143.90;100.00;55295.88;2083807;28;20014;-62
2022/03/31 06:05:51;;;;;;;;;;;;;;;-143.90;100.00;55270.06;2075858;28;19921;-62
2022/03/31 06:07:11;;;;;;;;;;;;;;;-143.90;100.00;55321.69;2083319;28;19917;-62
2022/03/31 06:08:32;;;;;;;;;;;;;;;-143.90;100.00;55285.97;2083300;28;19946;-63
2022/03/31 06:09:53;;;;;;;;;;;;;;;-143.90;100.00;55301.84;2082863;28;19925;-63
2022/03/31 06:11:13;;;;;;;;;;;;;;;-143.90;100.00;55278.00;2074566;28;19925;-63
2022/03/31 06:12:35;;;;;;;;;;;;;;;-143.90;100.00;55299.84;2080373;28;19948;-63
2022/03/31 06:13:56;;;;;;;;;;;;;;;-143.90;100.00;55262.13;2085588;28;19916;-62
2022/03/31 06:15:17;;;;;;;;;;;;;;;-143.90;100.00;55246.25;2083918;28;19924;-62
2022/03/31 06:16:38;;;;;;;;;;;;;;;-143.90;100.00;55262.13;2078046;28;19995;-63
2022/03/31 06:17:59;;;;;;;;;;;;;;;-143.90;100.00;55254.19;2082879;28;19942;-63
2022/03/31 06:19:20;;;;;;;;;;;;;;;-143.90;100.00;55258.16;2084696;28;19927;-62
2022/03/31 06:20:41;;;;;;;;;;;;;;;-143.90;100.00;55285.97;2084359;28;19997;-63
2022/03/31 06:22:02;;;;;;;;;;;;;;;-143.90;100.00;55244.25;2085111;28;20595;-63
2022/03/31 06:23:23;;;;;;;;;;;;;;;-143.90;100.00;55281.97;2086069;28;19990;-62
2022/03/31 06:24:43;;;;;;;;;;;;;;;-143.90;100.00;55254.19;2084119;28;20419;-64
2022/03/31 06:26:04;;;;;;;;;;;;;;;-143.90;100.00;55262.13;2083236;28;19924;-62
2022/03/31 06:27:25;;;;;;;;;;;;;;;-143.90;100.00;55270.06;2083489;28;19933;-61
2022/03/31 06:28:46;;;;;;;;;;;;;;;-143.90;100.00;55287.94;2077372;28;19948;-63
2022/03/31 06:30:07;;;;;;;;;;;;;;;-143.90;100.00;55274.03;2082174;28;19924;-63
2022/03/31 06:31:27;;;;;;;;;;;;;;;-143.90;100.00;55262.13;2083362;28;21021;-62
2022/03/31 06:32:48;;;;;;;;;;;;;;;-143.90;100.00;55287.94;2084216;28;19967;-63
2022/03/31 06:34:09;;;;;;;;;;;;;;;-143.90;100.00;55266.09;2084394;28;20399;-63
2022/03/31 06:35:29;;;;;;;;;;;;;;;-143.90;100.00;55270.06;2083407;28;19927;-61
2022/03/31 06:36:50;;;;;;;;;;;;;;;-143.90;100.00;55272.06;2085754;28;19947;-63
2022/03/31 06:38:11;;;;;;;;;;;;;;;-143.90;100.00;55289.94;2085382;28;20483;-62
2022/03/31 06:39:32;;;;;;;;;;;;;;;-143.90;100.00;55291.91;2082689;28;19921;-62
2022/03/31 06:41:11;;;;;;;;;;;;;;;-143.90;100.00;55254.19;2084613;28;19921;-64
2022/03/31 06:42:31;;;;;;;;;;;;;;;-143.90;100.00;55313.75;2074423;28;19921;-62
2022/03/31 06:43:52;;;;;;;;;;;;;;;-143.90;100.00;55250.22;2081049;28;19947;-63
2022/03/31 06:45:15;;;;;;;;;;;;;;;-143.90;100.00;55289.94;2083291;28;19920;-62
2022/03/31 06:46:35;;;;;;;;;;;;;;;-143.90;100.00;55260.16;2083323;28;20304;-64
2022/03/31 06:47:56;;;;;;;;;;;;;;;-143.90;100.00;55226.38;2083170;28;20070;-63
2022/03/31 06:49:18;;;;;;;;;;;;;;;-143.90;100.00;55274.03;2084114;28;19921;-60
2022/03/31 06:50:40;;;;;;;;;;;;;;;-143.90;100.00;55274.03;2083001;28;20357;-63
2022/03/31 06:52:01;;;;;;;;;;;;;;;-143.90;100.00;55262.13;2085041;28;19927;-61
2022/03/31 06:53:22;;;;;;;;;;;;;;;-143.90;100.00;55289.94;2083058;28;20043;-63
2022/03/31 06:54:42;;;;;;;;;;;;;;;-143.90;100.00;55250.22;2084397;28;19921;-64
2022/03/31 06:56:06;;;;;;;;;;;;;;;-143.90;100.00;55254.19;2084017;28;19971;-63
2022/03/31 06:57:27;;;;;;;;;;;;;;;-143.90;100.00;55262.13;2084205;28;20825;-63
2022/03/31 06:58:48;;;;;;;;;;;;;;;-143.90;100.00;55305.81;2085081;28;19921;-62
2022/03/31 07:00:09;;;;;;;;;;;;;;;-143.90;100.00;55270.06;2085062;28;19982;-62
2022/03/31 07:01:30;;;;;;;;;;;;;;;-143.90;100.00;55313.75;2084417;28;20344;-62
2022/03/31 07:02:51;;;;;;;;;;;;;;;-143.90;100.00;55266.09;2083113;28;19921;-61